createdAt,value
2017-07-28T00:01:20.183Z,6.23
2017-07-28T00:03:54.473Z,7.00
2017-07-28T00:06:28.799Z,5.33
2017-07-28T00:09:03.124Z,6.53
2017-07-28T00:11:37.464Z,5.60
2017-07-28T00:14:11.717Z,5.40
2017-07-28T00:16:46.079Z,5.90
2017-07-28T00:19:20.360Z,6.00
2017-07-28T00:28:25.320Z,5.90
2017-07-28T00:30:59.469Z,5.90
2017-07-28T00:33:33.708Z,6.70
2017-07-28T00:36:07.893Z,5.90
2017-07-28T00:38:42.108Z,5.30
2017-07-28T00:41:16.284Z,6.17
2017-07-28T00:43:50.869Z,7.80
2017-07-28T00:46:25.002Z,8.50
2017-07-28T00:48:59.468Z,7.67
2017-07-28T00:51:33.753Z,7.00
2017-07-28T00:57:23.606Z,8.50
2017-07-28T00:59:57.850Z,8.80
2017-07-28T01:05:47.238Z,6.40
2017-07-28T01:08:21.668Z,6.07
2017-07-28T01:10:55.745Z,6.23
2017-07-28T01:13:30.076Z,5.83
2017-07-28T01:16:04.379Z,6.07
2017-07-28T01:18:38.527Z,5.73
2017-07-28T01:21:12.710Z,5.07
2017-07-28T01:23:46.956Z,5.70
2017-07-28T01:26:21.512Z,5.40
2017-07-28T01:28:55.785Z,4.63
2017-07-28T01:31:30.178Z,4.70
2017-07-28T01:34:04.534Z,4.70
2017-07-28T01:39:53.869Z,4.67
2017-07-28T01:45:43.393Z,4.67
2017-07-28T01:48:17.585Z,4.63
2017-07-28T01:50:51.900Z,5.17
2017-07-28T01:53:26.379Z,5.03
2017-07-28T01:56:00.694Z,4.47
2017-07-28T01:58:35.190Z,4.67
2017-07-28T02:01:09.376Z,4.33
2017-07-28T02:03:43.638Z,4.80
2017-07-28T02:06:17.807Z,4.10
2017-07-28T02:08:51.966Z,4.33
2017-07-28T02:17:56.600Z,5.80
2017-07-28T02:20:30.844Z,5.27
2017-07-28T02:23:05.291Z,4.37
2017-07-28T02:25:39.450Z,4.23
2017-07-28T02:28:13.932Z,5.10
2017-07-28T02:30:48.180Z,5.07
2017-07-28T02:33:22.447Z,4.10
2017-07-28T02:35:57.559Z,4.53
2017-07-28T02:38:31.864Z,5.20
2017-07-28T02:41:06.090Z,4.30
2017-07-28T02:43:40.632Z,4.40
2017-07-28T02:46:14.849Z,4.70
2017-07-28T02:48:49.029Z,4.33
2017-07-28T02:54:38.433Z,5.30
2017-07-28T02:57:12.703Z,5.60
2017-07-28T02:59:46.904Z,5.03
2017-07-28T03:05:35.707Z,5.90
2017-07-28T03:08:09.954Z,6.37
2017-07-28T03:10:44.603Z,6.00
2017-07-28T03:13:18.721Z,5.20
2017-07-28T03:15:53.134Z,4.97
2017-07-28T03:18:27.291Z,6.30
2017-07-28T03:21:01.472Z,5.00
2017-07-28T03:23:35.533Z,5.40
2017-07-28T03:26:09.909Z,5.30
2017-07-28T03:31:59.501Z,4.80
2017-07-28T03:34:34.056Z,5.33
2017-07-28T03:37:08.242Z,5.47
2017-07-28T03:39:42.572Z,5.50
2017-07-28T03:45:31.768Z,5.27
2017-07-28T03:48:05.990Z,4.70
2017-07-28T03:50:40.317Z,4.83
2017-07-28T03:53:14.409Z,4.67
2017-07-28T03:55:48.624Z,4.90
2017-07-28T03:58:23.065Z,4.57
2017-07-28T04:00:57.193Z,4.90
2017-07-28T04:03:31.326Z,4.53
2017-07-28T04:09:20.974Z,4.73
2017-07-28T04:11:55.134Z,4.70
2017-07-28T04:14:29.256Z,4.63
2017-07-28T04:17:03.743Z,5.23
2017-07-28T04:19:37.901Z,4.63
2017-07-28T04:28:41.981Z,5.77
2017-07-28T04:31:16.140Z,8.20
2017-07-28T04:33:50.272Z,7.23
2017-07-28T04:36:24.684Z,7.30
2017-07-28T04:38:58.810Z,7.77
2017-07-28T04:41:33.166Z,7.00
2017-07-28T04:44:07.248Z,5.47
2017-07-28T04:46:41.657Z,5.47
2017-07-28T04:49:15.836Z,5.87
2017-07-28T04:51:50.150Z,5.57
2017-07-28T04:54:24.589Z,5.97
2017-07-28T04:56:58.935Z,5.53
2017-07-28T04:59:33.336Z,4.90
2017-07-28T05:05:22.497Z,4.37
2017-07-28T05:07:56.551Z,4.17
2017-07-28T05:10:30.753Z,4.30
2017-07-28T05:13:05.136Z,4.33
2017-07-28T05:15:39.268Z,4.53
2017-07-28T05:18:13.585Z,5.27
2017-07-28T05:20:47.837Z,4.60
2017-07-28T05:23:21.987Z,4.40
2017-07-28T05:29:10.839Z,4.30
2017-07-28T05:31:45.006Z,3.90
2017-07-28T05:34:19.151Z,4.07
2017-07-28T05:36:53.334Z,4.43
2017-07-28T05:39:27.457Z,5.30
2017-07-28T05:48:32.087Z,6.10
2017-07-28T05:51:06.452Z,6.57
2017-07-28T05:53:40.583Z,5.90
2017-07-28T05:56:14.748Z,5.20
2017-07-28T05:58:48.968Z,6.20
2017-07-28T06:01:23.144Z,6.10
2017-07-28T06:03:57.516Z,5.67
2017-07-28T06:06:31.683Z,6.90
2017-07-28T06:09:05.676Z,6.80
2017-07-28T06:11:39.857Z,6.90
2017-07-28T06:14:13.977Z,5.53
2017-07-28T06:16:48.339Z,5.80
2017-07-28T06:19:22.412Z,5.13
2017-07-28T06:25:11.642Z,4.87
2017-07-28T06:27:45.854Z,5.27
2017-07-28T06:30:20.053Z,4.80
2017-07-28T06:36:09.084Z,12.07
2017-07-28T06:38:43.300Z,4.83
2017-07-28T06:41:17.401Z,4.73
2017-07-28T06:43:51.687Z,4.50
2017-07-28T06:46:26.059Z,9.60
2017-07-28T06:49:00.291Z,14.30
2017-07-28T06:51:34.629Z,6.47
2017-07-28T07:00:39.809Z,4.60
2017-07-28T07:03:14.004Z,4.63
2017-07-28T07:05:48.090Z,8.53
2017-07-28T07:08:22.301Z,8.17
2017-07-28T07:10:56.293Z,6.70
2017-07-28T07:13:30.721Z,4.97
2017-07-28T07:16:04.878Z,4.67
2017-07-28T07:18:39.323Z,4.37
2017-07-28T07:21:13.439Z,4.10
2017-07-28T07:23:47.576Z,4.17
2017-07-28T07:26:22.018Z,4.00
2017-07-28T07:28:56.170Z,4.87
2017-07-28T07:31:30.391Z,3.87
2017-07-28T07:37:19.873Z,4.77
2017-07-28T07:39:54.118Z,4.10
2017-07-28T07:45:42.899Z,5.00
2017-07-28T07:48:17.291Z,11.27
2017-07-28T07:50:51.456Z,5.07
2017-07-28T07:53:25.830Z,5.33
2017-07-28T07:55:59.937Z,4.17
2017-07-28T07:58:34.387Z,4.17
2017-07-28T08:01:08.549Z,4.00
2017-07-28T08:03:42.861Z,4.20
2017-07-28T08:06:16.910Z,3.83
2017-07-28T08:08:51.125Z,3.97
2017-07-28T08:14:39.916Z,4.50
2017-07-28T08:17:14.134Z,4.30
2017-07-28T08:19:48.460Z,4.23
2017-07-28T08:25:37.157Z,4.03
2017-07-28T08:28:11.562Z,3.40
2017-07-28T08:30:45.700Z,3.80
2017-07-28T08:33:19.848Z,3.80
2017-07-28T08:35:54.631Z,3.60
2017-07-28T08:38:29.040Z,3.93
2017-07-28T08:41:03.101Z,3.43
2017-07-28T08:43:38.293Z,3.77
2017-07-28T08:46:12.420Z,3.60
2017-07-28T08:48:46.769Z,3.60
2017-07-28T08:54:36.243Z,3.33
2017-07-28T08:57:10.356Z,3.50
2017-07-28T08:59:44.741Z,3.30
2017-07-28T09:05:33.544Z,2.40
2017-07-28T09:08:07.929Z,2.70
2017-07-28T09:10:42.299Z,2.53
2017-07-28T09:13:16.408Z,2.70
2017-07-28T09:15:50.566Z,2.50
2017-07-28T09:21:05.712Z,2.77
2017-07-28T09:23:39.885Z,2.60
2017-07-28T09:29:28.995Z,2.63
2017-07-28T09:32:03.191Z,2.60
2017-07-28T09:34:37.636Z,2.50
2017-07-28T09:37:11.778Z,2.43
2017-07-28T09:39:46.152Z,2.60
2017-07-28T09:45:35.862Z,2.60
2017-07-28T09:48:10.302Z,3.00
2017-07-28T09:50:44.576Z,2.77
2017-07-28T09:53:18.946Z,2.60
2017-07-28T09:55:53.102Z,3.23
2017-07-28T09:58:27.225Z,3.10
2017-07-28T10:01:01.515Z,2.77
2017-07-28T10:03:35.741Z,2.90
2017-07-28T10:06:10.080Z,2.70
2017-07-28T10:15:14.043Z,3.07
2017-07-28T10:17:48.413Z,2.97
2017-07-28T10:20:22.414Z,3.30
2017-07-28T10:22:56.770Z,2.90
2017-07-28T10:25:30.948Z,2.80
2017-07-28T10:28:05.065Z,2.93
2017-07-28T10:30:39.420Z,2.63
2017-07-28T10:33:13.485Z,2.70
2017-07-28T10:35:47.813Z,2.77
2017-07-28T10:38:21.973Z,2.73
2017-07-28T10:40:56.270Z,2.70
2017-07-28T10:43:30.445Z,4.40
2017-07-28T10:46:04.812Z,2.83
2017-07-28T10:48:39.022Z,2.60
2017-07-28T10:57:43.189Z,2.90
2017-07-28T11:00:17.348Z,3.20
2017-07-28T11:02:51.651Z,3.00
2017-07-28T11:05:25.817Z,4.23
2017-07-28T11:08:00.061Z,3.20
2017-07-28T11:10:34.118Z,2.57
2017-07-28T11:13:08.445Z,2.97
2017-07-28T11:15:42.612Z,5.97
2017-07-28T11:18:16.848Z,8.63
2017-07-28T11:20:51.036Z,5.40
2017-07-28T11:23:25.287Z,4.10
2017-07-28T11:25:59.700Z,3.00
2017-07-28T11:28:33.897Z,2.60
2017-07-28T11:31:09.468Z,3.13
2017-07-28T11:33:43.668Z,3.33
2017-07-28T11:36:17.850Z,2.93
2017-07-28T11:38:52.912Z,2.73
2017-07-28T11:41:27.156Z,2.90
2017-07-28T11:44:01.442Z,2.73
2017-07-28T11:46:35.528Z,2.93
2017-07-28T11:49:09.712Z,3.20
2017-07-28T11:51:43.823Z,2.90
2017-07-28T11:54:18.040Z,2.50
2017-07-28T11:56:52.365Z,2.90
2017-07-28T11:59:26.502Z,3.33
2017-07-28T12:02:00.880Z,3.00
2017-07-28T12:04:35.069Z,2.90
2017-07-28T12:07:09.465Z,3.23
2017-07-28T12:09:43.516Z,4.40
2017-07-28T12:12:17.665Z,4.80
2017-07-28T12:14:51.829Z,3.10
2017-07-28T12:17:25.978Z,2.93
2017-07-28T12:20:00.313Z,3.20
2017-07-28T12:25:49.036Z,3.10
2017-07-28T12:28:23.184Z,3.10
2017-07-28T12:30:57.575Z,3.30
2017-07-28T12:33:31.697Z,2.83
2017-07-28T12:36:05.826Z,2.67
2017-07-28T12:38:40.011Z,2.90
2017-07-28T12:41:14.328Z,3.30
2017-07-28T12:43:48.446Z,2.90
2017-07-28T12:46:22.801Z,2.80
2017-07-28T12:48:56.827Z,3.00
2017-07-28T12:51:31.165Z,2.93
2017-07-28T12:54:05.450Z,3.37
2017-07-28T13:03:09.520Z,2.93
2017-07-28T13:05:43.668Z,3.00
2017-07-28T13:08:18.069Z,2.67
2017-07-28T13:10:52.234Z,2.40
2017-07-28T13:13:26.578Z,2.80
2017-07-28T13:16:00.657Z,2.90
2017-07-28T13:18:35.048Z,3.10
2017-07-28T13:21:09.770Z,3.10
2017-07-28T13:23:44.064Z,3.00
2017-07-28T13:26:18.201Z,2.87
2017-07-28T13:28:52.393Z,2.70
2017-07-28T13:31:26.722Z,2.80
2017-07-28T13:34:00.890Z,2.70
2017-07-28T13:39:50.165Z,2.87
2017-07-28T13:45:38.811Z,2.70
2017-07-28T13:48:13.536Z,2.90
2017-07-28T13:50:47.576Z,3.20
2017-07-28T13:53:21.714Z,2.80
2017-07-28T13:55:55.889Z,2.60
2017-07-28T13:58:30.221Z,2.97
2017-07-28T14:01:04.201Z,2.83
2017-07-28T14:03:38.593Z,3.00
2017-07-28T14:06:12.738Z,2.90
2017-07-28T14:12:01.755Z,3.83
2017-07-28T14:14:35.971Z,2.97
2017-07-28T14:17:10.093Z,3.00
2017-07-28T14:19:44.400Z,3.33
2017-07-28T14:25:33.506Z,2.80
2017-07-28T14:28:07.665Z,3.00
2017-07-28T14:30:41.820Z,3.37
2017-07-28T14:33:16.193Z,2.60
2017-07-28T14:35:50.256Z,3.30
2017-07-28T14:38:24.408Z,2.80
2017-07-28T14:40:58.485Z,3.03
2017-07-28T14:43:32.632Z,2.77
2017-07-28T14:49:22.055Z,2.80
2017-07-28T14:51:56.214Z,2.70
2017-07-28T14:54:30.404Z,3.13
2017-07-28T14:57:04.588Z,3.10
2017-07-28T14:59:38.633Z,2.80
2017-07-28T15:05:27.868Z,2.70
2017-07-28T15:08:02.389Z,3.20
2017-07-28T15:10:36.574Z,2.90
2017-07-28T15:13:10.916Z,2.97
2017-07-28T15:15:45.021Z,3.07
2017-07-28T15:18:19.369Z,2.80
2017-07-28T15:20:53.510Z,3.50
2017-07-28T15:23:27.805Z,3.87
2017-07-28T15:26:01.942Z,3.33
2017-07-28T15:31:50.937Z,3.13
2017-07-28T15:34:25.161Z,4.50
2017-07-28T15:36:59.213Z,3.60
2017-07-28T15:39:33.505Z,3.07
2017-07-28T15:48:38.186Z,3.30
2017-07-28T15:51:12.244Z,3.73
2017-07-28T15:53:46.460Z,3.50
2017-07-28T15:56:20.799Z,3.50
2017-07-28T15:58:54.937Z,3.00
2017-07-28T16:01:28.940Z,2.93
2017-07-28T16:04:03.305Z,2.87
2017-07-28T16:06:37.577Z,2.57
2017-07-28T16:09:12.276Z,3.07
2017-07-28T16:11:46.278Z,3.00
2017-07-28T16:17:34.977Z,3.03
2017-07-28T16:20:09.125Z,3.13
2017-07-28T16:25:58.211Z,3.37
2017-07-28T16:28:32.397Z,3.60
2017-07-28T16:31:06.558Z,3.80
2017-07-28T16:33:40.536Z,3.90
2017-07-28T16:36:15.146Z,3.80
2017-07-28T16:38:49.314Z,4.13
2017-07-28T16:41:23.428Z,4.17
2017-07-28T16:43:57.750Z,4.17
2017-07-28T16:46:32.112Z,3.87
2017-07-28T16:49:06.250Z,3.70
2017-07-28T16:51:40.527Z,3.70
2017-07-28T16:54:14.585Z,3.87
2017-07-28T16:56:48.919Z,4.20
2017-07-28T16:59:23.091Z,3.83
2017-07-28T17:01:57.448Z,3.93
2017-07-28T17:04:31.545Z,4.20
2017-07-28T17:07:05.761Z,4.73
2017-07-28T17:09:39.868Z,4.20
2017-07-28T17:12:14.233Z,3.70
2017-07-28T17:14:48.275Z,4.20
2017-07-28T17:17:22.756Z,4.30
2017-07-28T17:19:56.936Z,4.50
2017-07-28T17:22:31.185Z,4.80
2017-07-28T17:25:05.612Z,4.53
2017-07-28T17:27:39.688Z,4.57
2017-07-28T17:30:14.041Z,4.50
2017-07-28T17:32:48.209Z,5.10
2017-07-28T17:35:22.680Z,4.30
2017-07-28T17:37:56.740Z,5.00
2017-07-28T17:40:31.121Z,4.83
2017-07-28T17:43:05.224Z,5.10
2017-07-28T17:45:39.752Z,3.87
2017-07-28T17:48:13.957Z,4.47
2017-07-28T17:50:48.028Z,4.90
2017-07-28T17:53:22.212Z,5.40
2017-07-28T17:55:56.313Z,4.77
2017-07-28T17:58:30.628Z,4.73
2017-07-28T18:01:04.744Z,5.07
2017-07-28T18:03:39.260Z,5.03
2017-07-28T18:06:13.400Z,4.60
2017-07-28T18:08:47.983Z,5.20
2017-07-28T18:11:22.234Z,4.90
2017-07-28T18:13:56.459Z,4.87
2017-07-28T18:16:30.972Z,4.63
2017-07-28T18:19:05.064Z,4.60
2017-07-28T18:21:39.393Z,4.87
2017-07-28T18:24:13.691Z,5.70
2017-07-28T18:26:47.984Z,5.23
2017-07-28T18:29:22.152Z,5.53
2017-07-28T18:31:56.397Z,5.43
2017-07-28T18:34:30.872Z,5.13
2017-07-28T18:37:05.229Z,5.00
2017-07-28T18:39:39.525Z,4.90
2017-07-28T18:42:13.680Z,5.40
2017-07-28T18:44:47.774Z,5.40
2017-07-28T18:47:22.118Z,4.97
2017-07-28T18:49:56.506Z,5.00
2017-07-28T18:52:30.679Z,5.00
2017-07-28T18:55:04.860Z,4.90
2017-07-28T18:57:39.187Z,4.80
2017-07-28T19:00:13.661Z,5.10
2017-07-28T19:02:47.888Z,5.17
2017-07-28T19:05:22.297Z,5.17
2017-07-28T19:07:56.405Z,5.80
2017-07-28T19:10:30.920Z,4.77
2017-07-28T19:13:05.228Z,5.63
2017-07-28T19:15:39.352Z,4.93
2017-07-28T19:18:13.630Z,5.80
2017-07-28T19:20:47.759Z,5.40
2017-07-28T19:23:21.881Z,4.80
2017-07-28T19:25:56.091Z,5.03
2017-07-28T19:28:30.272Z,5.13
2017-07-28T19:31:04.861Z,5.20
2017-07-28T19:33:39.155Z,4.77
2017-07-28T19:36:13.583Z,5.13
2017-07-28T19:38:47.792Z,4.83
2017-07-28T19:41:22.335Z,5.00
2017-07-28T19:43:56.478Z,6.17
2017-07-28T19:46:30.540Z,5.10
2017-07-28T19:49:05.197Z,5.20
2017-07-28T19:51:39.814Z,5.40
2017-07-28T19:54:13.972Z,5.33
2017-07-28T19:56:48.050Z,5.60
2017-07-28T19:59:22.303Z,5.00
2017-07-28T20:01:56.528Z,4.73
2017-07-28T20:04:30.995Z,6.20
2017-07-28T20:07:05.169Z,5.30
2017-07-28T20:09:39.746Z,4.57
2017-07-28T20:12:13.924Z,5.00
2017-07-28T20:14:48.045Z,5.30
2017-07-28T20:17:22.254Z,4.77
2017-07-28T20:19:56.492Z,4.97
2017-07-28T20:22:30.701Z,4.80
2017-07-28T20:25:04.898Z,4.97
2017-07-28T20:27:39.004Z,5.07
2017-07-28T20:30:13.255Z,5.00
2017-07-28T20:32:47.299Z,5.20
2017-07-28T20:35:21.548Z,4.90
2017-07-28T20:37:55.665Z,5.23
2017-07-28T20:40:29.829Z,5.20
2017-07-28T20:43:04.081Z,4.93
2017-07-28T20:45:38.120Z,5.13
2017-07-28T20:48:12.353Z,4.53
2017-07-28T20:50:46.437Z,4.60
2017-07-28T20:53:20.520Z,5.20
2017-07-28T20:55:54.553Z,5.00
2017-07-28T20:58:28.789Z,5.63
2017-07-28T21:01:03.013Z,5.23
2017-07-28T21:03:37.108Z,4.97
2017-07-28T21:06:11.456Z,5.37
2017-07-28T21:08:45.501Z,4.23
2017-07-28T21:11:19.692Z,4.90
2017-07-28T21:13:59.820Z,4.80
2017-07-28T21:16:33.956Z,4.93
2017-07-28T21:19:08.241Z,5.50
2017-07-28T21:21:42.319Z,4.63
2017-07-28T21:24:16.440Z,4.37
2017-07-28T21:26:50.742Z,5.17
2017-07-28T21:29:25.033Z,5.13
2017-07-28T21:31:59.297Z,4.97
2017-07-28T21:34:33.403Z,4.90
2017-07-28T21:37:07.576Z,4.57
2017-07-28T21:39:41.821Z,5.30
2017-07-28T21:42:15.947Z,4.80
2017-07-28T21:44:50.218Z,4.80
2017-07-28T21:47:24.416Z,6.73
2017-07-28T21:49:58.575Z,5.20
2017-07-28T21:52:32.836Z,5.10
2017-07-28T21:55:06.989Z,4.40
2017-07-28T21:57:41.236Z,5.43
2017-07-28T22:00:15.468Z,5.23
2017-07-28T22:02:49.588Z,5.30
2017-07-28T22:05:23.745Z,4.93
2017-07-28T22:07:57.989Z,5.10
2017-07-28T22:10:32.153Z,4.80
2017-07-28T22:13:06.403Z,4.80
2017-07-28T22:15:40.548Z,5.10
2017-07-28T22:18:14.720Z,4.80
2017-07-28T22:20:48.748Z,5.03
2017-07-28T22:23:23.079Z,5.13
2017-07-28T22:25:57.252Z,5.40
2017-07-28T22:28:31.284Z,5.30
2017-07-28T22:31:07.054Z,5.00
2017-07-28T22:33:41.379Z,4.90
2017-07-28T22:36:15.622Z,5.00
2017-07-28T22:38:49.802Z,4.80
2017-07-28T22:41:24.026Z,5.67
2017-07-28T22:43:58.202Z,5.10
2017-07-28T22:46:32.644Z,4.70
2017-07-28T22:49:06.805Z,4.97
2017-07-28T22:51:41.101Z,5.27
2017-07-28T22:54:15.436Z,5.33
2017-07-28T22:56:49.560Z,5.10
2017-07-28T22:59:23.751Z,4.60
2017-07-28T23:01:57.976Z,6.00
2017-07-28T23:04:32.052Z,5.90
2017-07-28T23:07:06.265Z,5.20
2017-07-28T23:09:40.344Z,5.10
2017-07-28T23:12:14.421Z,5.30
2017-07-28T23:14:48.500Z,5.23
2017-07-28T23:17:22.731Z,5.20
2017-07-28T23:19:56.891Z,5.37
2017-07-28T23:22:31.072Z,5.53
2017-07-28T23:25:05.249Z,5.03
2017-07-28T23:27:39.287Z,4.93
2017-07-28T23:30:13.511Z,6.07
2017-07-28T23:32:47.609Z,5.63
2017-07-28T23:35:21.725Z,5.20
2017-07-28T23:37:55.832Z,5.60
2017-07-28T23:40:29.925Z,5.30
2017-07-28T23:43:04.150Z,4.90
2017-07-28T23:45:38.369Z,4.80
2017-07-28T23:48:12.512Z,5.50
2017-07-28T23:50:46.620Z,5.33
2017-07-28T23:53:20.825Z,5.20
2017-07-28T23:55:55.119Z,5.67
2017-07-28T23:58:29.186Z,4.97
